Laredo, TX (78044)

4:35 AM CDT on April 27, 2015 (GMT -0500)
Laredo International | | Change Station
CLOSE
Current Station
Airport
Location: Laredo,
Elevation: 509 ft
Nearby Weather Stations
Active Advisory: Special Statement

Elev 509 ft 27.54 °N, 99.46 °W | Updated 4 minutes ago

Overcast
Overcast
73 °F
Feels Like 73 °F
N
18
Wind Variable Wind from North
Gusts 28 mph

Today
High -- | Low -- °F
--% Chance of Precip.
Yesterday
High -- | Low -- °F
Precip. -- in
7:02 AM 8:09 PM
Waxing Gibbous, 63% visible
Pressure 29.59 in
Visibility 10.0 miles
Clouds Overcast 7000 ft
Dew Point 66 °F
Humidity 78%
Rainfall 0.00 in
Snow Depth Not available.
UV 0 out of 12
Pollen 8.90 out of 12
Air Quality Not available.
Flu Activity Local Activity
SPECI KLRD 270931Z AUTO 35016G24KT 10SM OVC070 23/19 A2959

More Conditions Fewer Conditions

Pressure 29.59 in
Visibility 10.0 miles
Clouds Overcast 7000 ft
Dew Point 66 °F
Humidity 78%
Rainfall 0.00 in
Snow Depth Not available.
UV 0 out of 12
Pollen 8.90 out of 12
Air Quality Not available.
Flu Activity Local Activity
SPECI KLRD 270931Z AUTO 35016G24KT 10SM OVC070 23/19 A2959

More Conditions Fewer Conditions

Nowcast | as of 4:06 am CDT on April 27, 2015

Through 500 am CDT...a line of strong to severe thunderstorms will continue to affect southern Webb County. The primary threat will be damaging wind and large hail.

×

10-Day Weather Forecast

Almanac

Astronomy

Apr. 27, 2015 Rise Set
Actual Time
Civil Twilight
Nautical Twilight
Astronomical Twilight
Moon
Length of Visible Light
Length of Day
Tomorrow will be .
, % of the Moon is Illuminated

Today's Extremes

State Highs State Lows

Community

WunderPhotos

Upload Photos

1,817,278 photos uploaded!

WunderBlogs® & News

Nearby

Air Quality

  Air Quality AQ Index Pollutant
Not available.

Snow Depth

Station Depth Elevation

Earthquake Activity

City Distance Mag. Time & Date
Minimum magnitude displayed is 2.5.

Coastal Water Temperatures

Place Temperature

Stations

Nearby Weather Stations

Station Location Temp. Windchill Dew Point Humidity Wind Precip. Elev Updated Type
                   
Special Statement
Statement as of 4:17 AM CDT on April 27, 2015

... A strong thunderstorm will affect southeastern Webb County...

At 416 am CDT... a strong thunderstorm was near Aguilares... or 20
miles southeast of Laredo... moving east at 40 mph.

Wind gusts up to 50 mph and dime size hail are possible with this
storm.

Locations impacted include...
Oilton... Bruni... Mirando City and Aguilares.

This storm may intensify... so be certain to monitor local radio and
TV stations... as well as local cable TV outlets... for additional
information and possible warnings from the National Weather Service.

Lat... Lon 2728 9927 2749 9928 2752 9880 2727 9880
      2727 9892
time... Mot... loc 0916z 266deg 33kt 2741 9919

87